createdAt,value
2023-04-21T00:01:15.169Z,17.83
2023-04-21T00:03:43.507Z,25.13
2023-04-21T00:06:12.702Z,23.73
2023-04-21T00:08:40.989Z,23.93
2023-04-21T00:11:09.572Z,22.27
2023-04-21T00:13:38.226Z,25.93
2023-04-21T00:16:06.798Z,25.97
2023-04-21T00:18:35.197Z,29.00
2023-04-21T00:21:03.156Z,23.47
2023-04-21T00:23:32.196Z,22.90
2023-04-21T00:26:03.613Z,18.23
2023-04-21T00:28:32.117Z,19.27
2023-04-21T00:31:00.593Z,18.07
2023-04-21T00:33:28.799Z,21.83
2023-04-21T00:35:59.599Z,20.50
2023-04-21T00:38:28.063Z,19.53
2023-04-21T00:40:56.731Z,15.30
2023-04-21T00:43:26.242Z,19.17
2023-04-21T00:45:55.410Z,17.77
2023-04-21T00:48:24.468Z,21.50
2023-04-21T00:50:52.864Z,21.50
2023-04-21T00:53:23.760Z,19.53
2023-04-21T00:55:52.218Z,23.00
2023-04-21T00:58:22.798Z,21.40
2023-04-21T01:00:51.377Z,11.83
2023-04-21T01:03:19.835Z,17.77
2023-04-21T01:05:48.391Z,20.70
2023-04-21T01:08:17.739Z,13.07
2023-04-21T01:10:45.804Z,27.10
2023-04-21T01:13:16.533Z,20.20
2023-04-21T01:15:44.981Z,16.27
2023-04-21T01:18:13.495Z,24.07
2023-04-21T01:20:41.889Z,16.27
2023-04-21T01:23:09.810Z,20.67
2023-04-21T01:25:38.552Z,22.80
2023-04-21T01:28:07.419Z,26.57
2023-04-21T01:30:35.872Z,21.80
2023-04-21T01:33:04.173Z,17.67
2023-04-21T01:35:32.677Z,15.90
2023-04-21T01:38:01.763Z,24.80
2023-04-21T01:40:55.548Z,25.47
2023-04-21T01:43:25.264Z,17.57
2023-04-21T01:45:53.923Z,25.30
2023-04-21T01:48:22.276Z,25.47
2023-04-21T01:50:50.335Z,38.43
2023-04-21T01:53:18.527Z,28.23
2023-04-21T01:55:46.606Z,25.50
2023-04-21T01:58:15.090Z,29.73
2023-04-21T02:00:43.551Z,21.50
2023-04-21T02:03:11.793Z,24.70
2023-04-21T02:05:40.382Z,20.60
2023-04-21T02:08:08.373Z,25.70
2023-04-21T02:10:36.469Z,24.63
2023-04-21T02:13:04.972Z,31.00
2023-04-21T02:15:34.038Z,18.40
2023-04-21T02:18:02.506Z,18.03
2023-04-21T02:20:31.246Z,24.87
2023-04-21T02:22:59.589Z,22.87
2023-04-21T02:25:28.570Z,20.63
2023-04-21T02:28:00.946Z,18.70
2023-04-21T02:30:31.052Z,14.13
2023-04-21T02:33:01.699Z,19.60
2023-04-21T02:35:30.226Z,17.10
2023-04-21T02:37:58.636Z,17.83
2023-04-21T02:40:27.695Z,19.97
2023-04-21T02:42:55.738Z,18.50
2023-04-21T02:45:23.836Z,14.00
2023-04-21T02:47:51.882Z,17.73
2023-04-21T02:50:20.446Z,17.03
2023-04-21T02:52:48.992Z,18.00
2023-04-21T02:55:18.122Z,14.90
2023-04-21T02:57:48.305Z,15.30
2023-04-21T03:00:18.826Z,17.23
2023-04-21T03:02:47.279Z,15.13
2023-04-21T03:05:17.477Z,15.97
2023-04-21T03:07:48.898Z,19.70
2023-04-21T03:10:17.456Z,15.63
2023-04-21T03:12:46.687Z,10.10
2023-04-21T03:15:19.459Z,10.50
2023-04-21T03:17:48.111Z,19.03
2023-04-21T03:20:17.722Z,14.90
2023-04-21T03:22:46.000Z,13.60
2023-04-21T03:25:14.097Z,22.03
2023-04-21T03:27:42.536Z,15.37
2023-04-21T03:30:11.635Z,19.57
2023-04-21T03:32:40.492Z,15.27
2023-04-21T03:35:08.933Z,16.70
2023-04-21T03:37:37.178Z,16.40
2023-04-21T03:40:09.337Z,10.83
2023-04-21T03:42:38.521Z,14.77
2023-04-21T03:45:08.703Z,13.57
2023-04-21T03:47:38.018Z,12.47
2023-04-21T03:50:07.685Z,15.33
2023-04-21T03:52:36.242Z,16.20
2023-04-21T03:55:05.500Z,14.13
2023-04-21T03:57:34.009Z,13.33
2023-04-21T04:00:02.084Z,18.50
2023-04-21T04:02:30.452Z,16.40
2023-04-21T04:04:59.112Z,21.23
2023-04-21T04:07:27.482Z,20.80
2023-04-21T04:09:56.058Z,7.33
2023-04-21T04:12:24.360Z,8.97
2023-04-21T04:14:52.773Z,6.77
2023-04-21T04:17:21.323Z,9.77
2023-04-21T04:19:49.370Z,6.03
2023-04-21T04:22:17.264Z,9.70
2023-04-21T04:24:45.462Z,8.27
2023-04-21T04:27:14.651Z,8.97
2023-04-21T04:29:44.493Z,8.67
2023-04-21T04:32:12.977Z,5.93
2023-04-21T04:34:41.067Z,10.03
2023-04-21T04:37:11.552Z,7.53
2023-04-21T04:39:39.814Z,7.93
2023-04-21T04:42:12.138Z,8.93
2023-04-21T04:44:43.980Z,7.23
2023-04-21T04:47:13.007Z,9.40
2023-04-21T04:49:41.266Z,8.07
2023-04-21T04:52:09.645Z,5.77
2023-04-21T04:54:38.199Z,7.93
2023-04-21T04:57:06.929Z,9.43
2023-04-21T04:59:39.026Z,11.43
2023-04-21T05:02:08.311Z,8.53
2023-04-21T05:04:37.037Z,8.43
2023-04-21T05:07:07.944Z,11.53
2023-04-21T05:09:36.858Z,14.30
2023-04-21T05:12:06.404Z,13.50
2023-04-21T05:14:34.232Z,12.43
2023-04-21T05:17:02.458Z,16.43
2023-04-21T05:19:30.578Z,14.53
2023-04-21T05:22:01.809Z,9.33
2023-04-21T05:24:30.597Z,17.57
2023-04-21T05:26:58.946Z,12.53
2023-04-21T05:29:27.360Z,12.07
2023-04-21T05:31:55.628Z,23.83
2023-04-21T05:34:24.032Z,12.83
2023-04-21T05:36:52.623Z,16.53
2023-04-21T05:39:20.737Z,16.97
2023-04-21T05:41:48.838Z,16.80
2023-04-21T05:44:18.761Z,15.43
2023-04-21T05:46:47.375Z,13.70
2023-04-21T05:49:15.948Z,16.57
2023-04-21T05:51:44.132Z,20.73
2023-04-21T05:54:12.141Z,14.33
2023-04-21T05:56:41.242Z,20.37
2023-04-21T05:59:09.963Z,18.93
2023-04-21T06:01:38.339Z,12.20
2023-04-21T06:04:06.957Z,18.10
2023-04-21T06:06:35.281Z,15.70
2023-04-21T06:09:03.395Z,16.10
2023-04-21T06:11:31.866Z,19.53
2023-04-21T06:14:01.450Z,12.80
2023-04-21T06:16:32.835Z,17.60
2023-04-21T06:19:01.454Z,16.80
2023-04-21T06:21:29.656Z,17.90
2023-04-21T06:23:58.149Z,16.57
2023-04-21T06:26:26.049Z,17.23
2023-04-21T06:28:54.034Z,18.13
2023-04-21T06:31:22.113Z,14.37
2023-04-21T06:33:50.156Z,14.27
2023-04-21T06:36:18.408Z,13.93
2023-04-21T06:38:46.714Z,9.50
2023-04-21T06:41:14.996Z,17.90
2023-04-21T06:43:43.241Z,21.20
2023-04-21T06:46:11.716Z,14.33
2023-04-21T06:48:40.076Z,15.57
2023-04-21T06:51:08.751Z,17.63
2023-04-21T06:53:38.436Z,13.23
2023-04-21T06:56:06.913Z,22.27
2023-04-21T06:58:34.635Z,16.57
2023-04-21T07:01:03.383Z,16.40
2023-04-21T07:03:31.802Z,15.13
2023-04-21T07:06:00.195Z,14.23
2023-04-21T07:08:29.142Z,13.90
2023-04-21T07:10:57.508Z,17.00
2023-04-21T07:13:26.093Z,13.07
2023-04-21T07:15:54.827Z,19.43
2023-04-21T07:18:22.972Z,15.77
2023-04-21T07:20:52.042Z,16.03
2023-04-21T07:23:20.172Z,14.03
2023-04-21T07:25:48.060Z,9.57
2023-04-21T07:28:16.714Z,16.13
2023-04-21T07:30:44.865Z,13.93
2023-04-21T07:33:13.314Z,19.50
2023-04-21T07:35:41.591Z,19.63
2023-04-21T07:38:10.017Z,24.57
2023-04-21T07:40:41.222Z,14.47
2023-04-21T07:43:09.819Z,14.23
2023-04-21T07:45:38.207Z,11.73
2023-04-21T07:48:07.219Z,13.93
2023-04-21T07:50:36.953Z,19.93
2023-04-21T07:53:05.860Z,18.37
2023-04-21T07:55:34.696Z,17.43
2023-04-21T07:58:02.835Z,18.40
2023-04-21T08:00:33.552Z,15.07
2023-04-21T08:03:02.220Z,16.40
2023-04-21T08:05:34.889Z,15.67
2023-04-21T08:08:05.192Z,17.70
2023-04-21T08:10:36.579Z,14.87
2023-04-21T08:13:06.769Z,19.40
2023-04-21T08:15:38.718Z,13.97
2023-04-21T08:18:10.116Z,16.93
2023-04-21T08:20:38.152Z,15.97
2023-04-21T08:23:06.553Z,17.93
2023-04-21T08:25:35.180Z,12.70
2023-04-21T08:28:03.598Z,14.70
2023-04-21T08:30:34.729Z,17.47
2023-04-21T08:33:03.040Z,13.10
2023-04-21T08:35:31.675Z,17.63
2023-04-21T08:37:59.911Z,22.10
2023-04-21T08:40:34.202Z,18.13
2023-04-21T08:43:02.333Z,15.30
2023-04-21T08:45:30.948Z,16.40
2023-04-21T08:48:01.856Z,17.00
2023-04-21T08:50:32.147Z,15.87
2023-04-21T08:53:00.153Z,20.50
2023-04-21T08:55:30.867Z,16.00
2023-04-21T08:57:59.489Z,15.03
2023-04-21T09:00:27.851Z,16.23
2023-04-21T09:03:02.107Z,15.23
2023-04-21T09:05:32.960Z,20.03
2023-04-21T09:08:17.028Z,13.63
2023-04-21T09:10:53.345Z,17.30
2023-04-21T09:13:34.111Z,17.70
2023-04-21T09:16:07.453Z,17.20
2023-04-21T09:18:40.596Z,16.33
2023-04-21T09:21:11.557Z,21.03
2023-04-21T09:23:50.913Z,22.03
2023-04-21T09:26:25.804Z,16.33
2023-04-21T09:28:54.451Z,23.67
2023-04-21T09:31:29.421Z,13.80
2023-04-21T09:34:00.713Z,21.87
2023-04-21T09:36:32.299Z,18.13
2023-04-21T09:41:41.615Z,17.53
2023-04-21T09:44:12.434Z,8.83
2023-04-21T09:46:45.220Z,20.73
2023-04-21T09:49:17.753Z,13.97
2023-04-21T09:54:29.190Z,19.73
2023-04-21T09:57:03.595Z,13.67
2023-04-21T09:59:41.395Z,16.17
2023-04-21T10:02:10.345Z,18.53
2023-04-21T10:04:39.039Z,19.77
2023-04-21T10:07:07.814Z,11.13
2023-04-21T10:09:57.566Z,18.63
2023-04-21T10:12:27.176Z,20.73
2023-04-21T10:14:56.576Z,18.77
2023-04-21T10:17:26.325Z,19.87
2023-04-21T10:19:58.893Z,18.57
2023-04-21T10:22:30.835Z,18.73
2023-04-21T10:25:03.106Z,15.60
2023-04-21T10:27:40.699Z,15.70
2023-04-21T10:30:23.268Z,16.37
2023-04-21T10:33:03.517Z,14.20
2023-04-21T10:36:01.843Z,18.73
2023-04-21T10:38:44.251Z,15.00
2023-04-21T10:41:31.508Z,15.77
2023-04-21T10:44:14.780Z,14.40
2023-04-21T10:46:50.195Z,16.37
2023-04-21T10:49:24.898Z,13.47
2023-04-21T10:52:02.970Z,14.27
2023-04-21T10:54:52.470Z,19.27
2023-04-21T10:57:21.865Z,14.73
2023-04-21T10:59:50.117Z,13.27
2023-04-21T11:02:19.657Z,11.63
2023-04-21T11:04:52.345Z,15.47
2023-04-21T11:07:25.380Z,11.63
2023-04-21T11:10:01.662Z,15.57
2023-04-21T11:12:42.307Z,8.70
2023-04-21T11:15:13.035Z,11.23
2023-04-21T11:17:47.558Z,10.83
2023-04-21T11:20:16.276Z,10.40
2023-04-21T11:22:44.333Z,14.33
2023-04-21T11:25:18.934Z,13.83
2023-04-21T11:27:57.567Z,11.30
2023-04-21T11:30:35.363Z,10.63
2023-04-21T11:33:03.792Z,16.30
2023-04-21T11:35:32.494Z,9.63
2023-04-21T11:38:06.063Z,12.37
2023-04-21T11:40:50.296Z,10.63
2023-04-21T11:43:18.595Z,13.70
2023-04-21T11:45:53.264Z,8.47
2023-04-21T11:48:30.561Z,10.83
2023-04-21T11:50:58.768Z,7.17
2023-04-21T11:53:26.922Z,8.47
2023-04-21T11:55:57.221Z,6.50
2023-04-21T11:58:25.529Z,6.30
2023-04-21T12:00:53.663Z,6.23
2023-04-21T12:03:22.159Z,6.33
2023-04-21T12:05:57.643Z,4.47
2023-04-21T12:08:30.058Z,4.40
2023-04-21T12:11:01.636Z,5.60
2023-04-21T12:13:31.548Z,4.50
2023-04-21T12:16:03.843Z,4.50
2023-04-21T12:18:35.426Z,5.57
2023-04-21T12:21:05.030Z,5.93
2023-04-21T12:23:33.215Z,4.90
2023-04-21T12:26:01.887Z,5.87
2023-04-21T12:28:30.731Z,4.10
2023-04-21T12:30:59.022Z,6.33
2023-04-21T12:33:27.374Z,6.20
2023-04-21T12:35:55.618Z,4.40
2023-04-21T12:38:24.140Z,3.13
2023-04-21T12:40:52.237Z,6.80
2023-04-21T12:43:20.324Z,5.50
2023-04-21T12:45:49.175Z,6.00
2023-04-21T12:48:17.445Z,5.13
2023-04-21T12:50:47.760Z,5.60
2023-04-21T12:53:17.116Z,6.80
2023-04-21T12:55:56.962Z,8.50
2023-04-21T12:58:29.901Z,5.03
2023-04-21T13:00:58.092Z,6.43
2023-04-21T13:03:26.587Z,7.23
2023-04-21T13:06:00.047Z,4.83
2023-04-21T13:08:28.954Z,11.43
2023-04-21T13:10:59.799Z,9.10
2023-04-21T13:13:28.100Z,7.70
2023-04-21T13:15:56.533Z,11.57
2023-04-21T13:18:24.856Z,8.83
2023-04-21T13:20:52.893Z,6.23
2023-04-21T13:23:21.171Z,9.73
2023-04-21T13:25:51.316Z,9.77
2023-04-21T13:28:20.555Z,8.93
2023-04-21T13:30:51.855Z,5.63
2023-04-21T13:33:20.373Z,10.97
2023-04-21T13:35:48.463Z,14.03
2023-04-21T13:38:17.526Z,11.33
2023-04-21T13:40:46.472Z,6.80
2023-04-21T13:43:14.566Z,6.63
2023-04-21T13:45:42.787Z,8.30
2023-04-21T13:48:11.650Z,7.83
2023-04-21T13:50:40.479Z,8.00
2023-04-21T13:53:08.764Z,6.47
2023-04-21T13:55:37.008Z,8.23
2023-04-21T13:58:05.703Z,9.07
2023-04-21T14:00:37.483Z,6.70
2023-04-21T14:03:08.294Z,9.17
2023-04-21T14:05:37.043Z,11.23
2023-04-21T14:08:05.939Z,5.20
2023-04-21T14:10:34.962Z,5.47
2023-04-21T14:13:06.685Z,5.33
2023-04-21T14:15:35.678Z,6.60
2023-04-21T14:18:05.458Z,9.47
2023-04-21T14:20:36.442Z,5.73
2023-04-21T14:23:04.822Z,6.47
2023-04-21T14:25:34.045Z,4.87
2023-04-21T14:28:05.586Z,4.93
2023-04-21T14:30:39.088Z,5.73
2023-04-21T14:33:07.255Z,6.10
2023-04-21T14:35:37.932Z,6.33
2023-04-21T14:38:06.039Z,6.40
2023-04-21T14:40:36.206Z,6.67
2023-04-21T14:43:07.344Z,5.20
2023-04-21T14:45:37.888Z,3.20
2023-04-21T14:48:09.540Z,5.50
2023-04-21T14:50:38.060Z,6.33
2023-04-21T14:53:07.055Z,7.93
2023-04-21T14:55:35.569Z,4.00
2023-04-21T14:58:03.990Z,3.80
2023-04-21T15:00:32.768Z,7.53
2023-04-21T15:03:01.434Z,10.97
2023-04-21T15:05:30.326Z,7.93
2023-04-21T15:07:58.648Z,3.93
2023-04-21T15:10:27.013Z,5.40
2023-04-21T15:12:55.366Z,5.13
2023-04-21T15:15:24.383Z,10.03
2023-04-21T15:17:52.885Z,7.83
2023-04-21T15:20:29.736Z,9.30
2023-04-21T15:23:05.058Z,7.43
2023-04-21T15:25:36.191Z,11.80
2023-04-21T15:28:05.252Z,14.40
2023-04-21T15:30:34.068Z,9.23
2023-04-21T15:33:03.153Z,10.57
2023-04-21T15:35:34.281Z,6.83
2023-04-21T15:38:02.498Z,9.20
2023-04-21T15:40:30.623Z,12.00
2023-04-21T15:42:59.062Z,6.90
2023-04-21T15:45:26.964Z,5.17
2023-04-21T15:47:55.076Z,4.23
2023-04-21T15:50:24.302Z,8.67
2023-04-21T15:52:53.710Z,12.43
2023-04-21T15:55:23.416Z,4.37
2023-04-21T15:57:52.352Z,12.00
2023-04-21T16:00:20.713Z,5.67
2023-04-21T16:02:49.211Z,4.83
2023-04-21T16:05:18.948Z,8.53
2023-04-21T16:07:47.966Z,7.83
2023-04-21T16:10:16.569Z,7.97
2023-04-21T16:12:45.707Z,6.67
2023-04-21T16:15:23.818Z,10.93
2023-04-21T16:17:53.709Z,7.17
2023-04-21T16:20:24.647Z,12.37
2023-04-21T16:22:52.943Z,7.93
2023-04-21T16:25:21.169Z,6.57
2023-04-21T16:27:49.500Z,8.87
2023-04-21T16:30:17.582Z,7.47
2023-04-21T16:32:45.692Z,9.17
2023-04-21T16:35:13.949Z,9.20
2023-04-21T16:37:44.656Z,5.50
2023-04-21T16:40:13.220Z,5.53
2023-04-21T16:42:41.605Z,5.57
2023-04-21T16:45:12.021Z,5.27
2023-04-21T16:47:42.352Z,9.10
2023-04-21T16:50:11.768Z,8.53
2023-04-21T16:52:39.981Z,5.67
2023-04-21T16:55:09.073Z,13.33
2023-04-21T16:57:37.661Z,9.20
2023-04-21T17:00:08.893Z,10.80
2023-04-21T17:02:38.451Z,13.40
2023-04-21T17:05:12.434Z,9.70
2023-04-21T17:07:41.286Z,8.73
2023-04-21T17:10:11.894Z,10.67
2023-04-21T17:12:44.420Z,12.50
2023-04-21T17:15:12.787Z,7.20
2023-04-21T17:17:43.670Z,10.63
2023-04-21T17:20:14.052Z,6.73
2023-04-21T17:22:42.923Z,9.67
2023-04-21T17:25:12.144Z,8.67
2023-04-21T17:27:41.266Z,8.23
2023-04-21T17:30:10.228Z,6.87
2023-04-21T17:32:40.686Z,12.07
2023-04-21T17:35:09.265Z,8.37
2023-04-21T17:37:43.508Z,7.63
2023-04-21T17:40:11.954Z,10.97
2023-04-21T17:42:40.820Z,9.60
2023-04-21T17:45:09.293Z,6.40
2023-04-21T17:47:37.258Z,5.60
2023-04-21T17:50:06.136Z,5.93
2023-04-21T17:52:37.019Z,6.83
2023-04-21T17:55:05.516Z,4.40
2023-04-21T17:57:33.806Z,5.70
2023-04-21T18:00:07.518Z,7.43
2023-04-21T18:02:35.931Z,8.23
2023-04-21T18:05:08.604Z,5.43
2023-04-21T18:07:36.979Z,7.57
2023-04-21T18:10:06.121Z,7.33
2023-04-21T18:12:39.247Z,9.20
2023-04-21T18:15:11.141Z,5.80
2023-04-21T18:17:39.525Z,4.47
2023-04-21T18:20:10.727Z,6.60
2023-04-21T18:22:50.111Z,3.77
2023-04-21T18:25:38.306Z,9.37
2023-04-21T18:28:11.379Z,6.83
2023-04-21T18:30:49.924Z,9.97
2023-04-21T18:33:22.174Z,7.77
2023-04-21T18:35:52.777Z,12.00
2023-04-21T18:38:23.401Z,10.00
2023-04-21T18:40:53.984Z,10.10
2023-04-21T18:43:28.328Z,9.03
2023-04-21T18:46:01.911Z,8.57
2023-04-21T18:48:30.286Z,8.53
2023-04-21T18:51:03.029Z,7.37
2023-04-21T18:53:31.229Z,7.67
2023-04-21T18:55:59.222Z,10.13
2023-04-21T18:58:36.520Z,9.93
2023-04-21T19:01:16.597Z,7.80
2023-04-21T19:03:49.022Z,9.97
2023-04-21T19:06:25.637Z,10.17
2023-04-21T19:09:07.293Z,7.30
2023-04-21T19:11:47.561Z,7.43
2023-04-21T19:14:21.691Z,5.33
2023-04-21T19:16:53.223Z,12.73
2023-04-21T19:19:22.461Z,11.20
2023-04-21T19:21:52.758Z,5.93
2023-04-21T19:24:23.772Z,7.47
2023-04-21T19:26:54.425Z,6.73
2023-04-21T19:29:25.336Z,6.03
2023-04-21T19:31:55.872Z,8.20
2023-04-21T19:34:24.795Z,8.10
2023-04-21T19:36:53.202Z,8.13
2023-04-21T19:39:25.668Z,10.20
2023-04-21T19:42:00.206Z,10.80
2023-04-21T19:44:36.555Z,11.40
2023-04-21T19:47:07.551Z,11.00
2023-04-21T19:49:36.041Z,10.17
2023-04-21T19:52:09.587Z,5.07
2023-04-21T19:54:38.430Z,8.73
2023-04-21T19:57:06.619Z,7.83
2023-04-21T19:59:35.214Z,11.10
2023-04-21T20:02:03.950Z,5.10
2023-04-21T20:04:34.888Z,7.70
2023-04-21T20:07:03.016Z,16.37
2023-04-21T20:09:33.906Z,9.27
2023-04-21T20:12:04.759Z,11.50
2023-04-21T20:14:36.264Z,9.40
2023-04-21T20:17:07.029Z,8.67
2023-04-21T20:19:36.095Z,14.60
2023-04-21T20:22:08.450Z,10.57
2023-04-21T20:24:43.194Z,10.80
2023-04-21T20:27:11.188Z,16.03
2023-04-21T20:29:39.959Z,12.93
2023-04-21T20:32:10.813Z,15.70
2023-04-21T20:34:39.150Z,16.47
2023-04-21T20:37:08.261Z,12.13
2023-04-21T20:39:38.656Z,8.57
2023-04-21T20:42:13.433Z,11.03
2023-04-21T20:44:43.573Z,12.23
2023-04-21T20:47:15.151Z,15.27
2023-04-21T20:49:47.814Z,16.37
2023-04-21T20:52:18.161Z,14.83
2023-04-21T20:54:46.610Z,12.87
2023-04-21T20:57:14.894Z,12.97
2023-04-21T20:59:43.294Z,8.27
2023-04-21T21:02:13.562Z,11.43
2023-04-21T21:04:41.855Z,13.57
2023-04-21T21:07:10.253Z,11.90
2023-04-21T21:09:39.282Z,10.40
2023-04-21T21:12:08.172Z,13.60
2023-04-21T21:14:36.972Z,17.50
2023-04-21T21:17:05.620Z,12.77
2023-04-21T21:19:39.046Z,16.90
2023-04-21T21:22:07.583Z,15.87
2023-04-21T21:24:35.920Z,13.80
2023-04-21T21:27:03.897Z,8.87
2023-04-21T21:29:34.264Z,14.40
2023-04-21T21:32:16.298Z,19.90
2023-04-21T21:34:44.903Z,14.87
2023-04-21T21:37:13.185Z,21.40
2023-04-21T21:39:42.120Z,16.73
2023-04-21T21:42:11.766Z,22.63
2023-04-21T21:44:40.087Z,16.50
2023-04-21T21:47:08.473Z,17.87
2023-04-21T21:49:39.052Z,15.17
2023-04-21T21:52:11.528Z,18.40
2023-04-21T21:54:40.207Z,17.60
2023-04-21T21:57:08.716Z,17.67
2023-04-21T21:59:37.474Z,14.77
2023-04-21T22:02:06.977Z,14.00
2023-04-21T22:04:35.186Z,18.23
2023-04-21T22:07:04.096Z,21.80
2023-04-21T22:09:32.485Z,18.63
2023-04-21T22:12:01.303Z,21.20
2023-04-21T22:14:30.306Z,20.27
2023-04-21T22:16:59.247Z,20.97
2023-04-21T22:19:27.683Z,15.87
2023-04-21T22:21:58.822Z,21.70
2023-04-21T22:24:27.147Z,17.10
2023-04-21T22:26:55.304Z,17.97
2023-04-21T22:29:24.138Z,24.73
2023-04-21T22:31:53.398Z,15.33
2023-04-21T22:34:21.802Z,14.37
2023-04-21T22:36:50.203Z,15.83
2023-04-21T22:39:21.638Z,17.27
2023-04-21T22:41:51.402Z,29.67
2023-04-21T22:44:19.435Z,23.37
2023-04-21T22:46:47.995Z,24.60
2023-04-21T22:49:17.607Z,22.60
2023-04-21T22:51:45.826Z,21.90
2023-04-21T22:54:14.594Z,20.40
2023-04-21T22:56:44.894Z,20.70
2023-04-21T22:59:12.994Z,22.40
2023-04-21T23:01:41.362Z,18.80
2023-04-21T23:04:09.589Z,25.17
2023-04-21T23:06:38.058Z,25.77
2023-04-21T23:09:06.761Z,21.27
2023-04-21T23:11:35.285Z,20.20
2023-04-21T23:14:03.597Z,19.60
2023-04-21T23:16:32.347Z,24.53
2023-04-21T23:19:00.741Z,22.47
2023-04-21T23:21:29.036Z,22.00
2023-04-21T23:23:57.951Z,24.30
2023-04-21T23:26:25.910Z,23.30
2023-04-21T23:28:54.348Z,24.73
2023-04-21T23:31:22.858Z,23.73
2023-04-21T23:33:51.266Z,16.73
2023-04-21T23:36:19.321Z,18.87
2023-04-21T23:38:47.193Z,19.20
2023-04-21T23:41:15.571Z,19.27
2023-04-21T23:43:43.782Z,17.80
2023-04-21T23:46:12.190Z,10.33
2023-04-21T23:48:47.589Z,17.90
2023-04-21T23:51:16.099Z,14.83
2023-04-21T23:53:48.429Z,16.33
2023-04-21T23:56:16.682Z,12.67
2023-04-21T23:58:44.727Z,12.77
